Time;durP1;ratioP1;P1;durP2;ratioP2;P2;SDS_P1;SDS_P2;PMS_P1;PMS_P2;Temp;Humidity;BMP_temperature;BMP_pressure;BME280_temperature;BME280_humidity;BME280_pressure;Samples;Min_cycle;Max_cycle;Signal;HPM_P1;HPM_P2
2022/09/16 00:01:35;;;;;;;7.33;3.80;;;15.50;99.90;;;;;;5055245;28;20205;-61
2022/09/16 00:04:02;;;;;;;7.43;3.90;;;15.50;99.90;;;;;;5054514;28;20278;-61
2022/09/16 00:06:30;;;;;;;4.60;3.57;;;15.50;99.90;;;;;;5055019;28;20251;-61
2022/09/16 00:09:00;;;;;;;5.63;3.83;;;15.50;99.90;;;;;;5055121;28;20213;-60
2022/09/16 00:11:27;;;;;;;4.30;3.87;;;15.40;99.90;;;;;;5055092;28;20296;-60
2022/09/16 00:13:54;;;;;;;5.43;3.87;;;15.50;99.90;;;;;;5054451;28;20335;-60
2022/09/16 00:16:23;;;;;;;4.07;3.67;;;15.40;99.90;;;;;;5055021;28;20229;-60
2022/09/16 00:18:53;;;;;;;6.57;4.07;;;15.40;99.90;;;;;;5055123;28;20209;-60
2022/09/16 00:21:20;;;;;;;4.50;3.63;;;15.50;99.90;;;;;;5054983;28;20287;-61
2022/09/16 00:23:47;;;;;;;4.33;3.67;;;15.50;99.90;;;;;;5054221;28;20251;-61
2022/09/16 00:26:15;;;;;;;4.73;3.97;;;15.50;99.90;;;;;;5054631;28;20210;-61
2022/09/16 00:28:43;;;;;;;6.20;3.70;;;15.40;99.90;;;;;;5054813;28;20629;-61
2022/09/16 00:31:09;;;;;;;6.17;3.93;;;15.50;99.90;;;;;;5054566;28;20688;-61
2022/09/16 00:33:36;;;;;;;6.80;3.97;;;15.50;99.90;;;;;;5053816;28;20919;-61
2022/09/16 00:36:08;;;;;;;4.33;3.70;;;15.50;99.90;;;;;;5054595;28;20300;-61
2022/09/16 00:38:34;;;;;;;4.83;4.13;;;15.60;99.90;;;;;;5054328;28;20735;-60
2022/09/16 00:41:01;;;;;;;8.67;3.93;;;15.60;99.90;;;;;;5054639;28;20209;-60
2022/09/16 00:43:45;;;;;;;6.90;3.87;;;15.60;99.90;;;;;;5053852;28;20275;-60
2022/09/16 00:46:12;;;;;;;4.87;4.17;;;15.70;99.90;;;;;;5054512;28;20246;-62
2022/09/16 00:48:40;;;;;;;6.83;4.30;;;15.70;99.90;;;;;;5054288;28;20263;-60
2022/09/16 00:51:10;;;;;;;5.20;4.23;;;15.80;99.90;;;;;;5054150;28;20210;-61
2022/09/16 00:53:42;;;;;;;6.97;4.27;;;15.90;99.90;;;;;;5053667;28;20284;-61
2022/09/16 00:56:11;;;;;;;4.17;3.63;;;16.00;99.90;;;;;;5054218;28;20230;-61
2022/09/16 00:58:44;;;;;;;5.20;3.60;;;16.00;99.90;;;;;;5053317;28;20217;-61
2022/09/16 01:01:10;;;;;;;5.77;3.63;;;16.00;99.90;;;;;;5054152;28;20279;-61
2022/09/16 01:03:42;;;;;;;6.87;4.30;;;16.00;99.90;;;;;;5053279;28;20226;-61
2022/09/16 01:06:10;;;;;;;5.93;4.00;;;16.00;99.90;;;;;;5053976;28;20296;-60
2022/09/16 01:08:37;;;;;;;5.30;4.10;;;16.10;99.90;;;;;;5053994;28;20213;-60
2022/09/16 01:11:04;;;;;;;6.97;4.40;;;16.10;99.90;;;;;;5054082;28;20205;-63
2022/09/16 01:13:30;;;;;;;7.13;4.03;;;16.10;99.90;;;;;;5053702;28;20233;-60
2022/09/16 01:16:04;;;;;;;4.03;3.63;;;16.10;99.90;;;;;;5053946;28;20225;-60
2022/09/16 01:18:37;;;;;;;5.53;3.93;;;16.20;99.90;;;;;;5054330;28;20210;-62
2022/09/16 01:21:21;;;;;;;6.07;3.93;;;16.20;99.90;;;;;;5053927;28;20211;-60
2022/09/16 01:24:11;;;;;;;8.00;4.03;;;16.20;99.90;;;;;;5053185;28;20586;-60
2022/09/16 01:27:06;;;;;;;5.38;4.00;;;16.30;99.90;;;;;;5053515;28;20206;-61
2022/09/16 01:29:49;;;;;;;8.10;4.13;;;16.20;99.90;;;;;;5053693;28;20228;-61
2022/09/16 01:32:21;;;;;;;4.53;4.00;;;16.20;99.90;;;;;;5053399;28;20217;-61
2022/09/16 01:34:53;;;;;;;5.47;4.27;;;16.30;99.90;;;;;;5053315;28;20229;-60
2022/09/16 01:37:28;;;;;;;5.95;3.90;;;16.30;99.90;;;;;;5053519;28;20229;-61
2022/09/16 01:40:03;;;;;;;7.33;4.43;;;16.20;99.90;;;;;;5053558;28;20209;-61
2022/09/16 01:42:37;;;;;;;6.30;4.43;;;16.20;99.90;;;;;;5052776;28;20236;-61
2022/09/16 01:45:08;;;;;;;7.83;4.60;;;16.10;99.90;;;;;;5053231;28;20209;-61
2022/09/16 01:47:43;;;;;;;4.82;4.03;;;16.10;99.90;;;;;;5053318;28;20210;-61
2022/09/16 01:50:18;;;;;;;8.50;4.13;;;16.00;99.90;;;;;;5053263;28;20205;-61
2022/09/16 01:52:54;;;;;;;6.77;4.60;;;16.00;99.90;;;;;;5052479;28;20651;-61
2022/09/16 01:55:26;;;;;;;6.50;4.37;;;16.00;99.90;;;;;;5053005;28;20209;-61
2022/09/16 01:57:56;;;;;;;5.93;4.40;;;16.00;99.90;;;;;;5052998;28;20213;-61
2022/09/16 02:00:23;;;;;;;5.00;4.03;;;15.90;99.90;;;;;;5053050;28;20604;-61
2022/09/16 02:02:56;;;;;;;5.23;4.13;;;15.90;99.90;;;;;;5052390;28;20245;-61
2022/09/16 02:05:26;;;;;;;6.47;4.70;;;15.80;99.90;;;;;;5052802;28;20673;-61
2022/09/16 02:07:57;;;;;;;4.40;4.00;;;15.80;99.90;;;;;;5052898;28;20206;-61
2022/09/16 02:10:30;;;;;;;6.35;4.75;;;15.70;99.90;;;;;;5052738;28;20210;-61
2022/09/16 02:13:05;;;;;;;7.77;4.47;;;15.60;99.90;;;;;;5052128;28;20239;-61
2022/09/16 02:15:33;;;;;;;9.10;4.63;;;15.60;99.90;;;;;;5052755;28;20287;-61
2022/09/16 02:18:07;;;;;;;6.67;4.67;;;15.50;99.90;;;;;;5052634;28;20210;-61
2022/09/16 02:20:38;;;;;;;7.13;4.93;;;15.50;99.90;;;;;;5052592;28;20205;-61
2022/09/16 02:23:09;;;;;;;9.07;6.13;;;15.50;99.90;;;;;;5051881;28;20569;-61
2022/09/16 02:25:39;;;;;;;8.73;5.13;;;15.40;99.90;;;;;;5052556;28;20213;-61
2022/09/16 02:28:12;;;;;;;8.27;5.40;;;15.40;99.90;;;;;;5052421;28;20636;-61
2022/09/16 02:30:42;;;;;;;8.13;4.97;;;15.40;99.90;;;;;;5052349;28;20236;-61
2022/09/16 02:33:13;;;;;;;8.07;5.00;;;15.30;99.90;;;;;;5051440;28;20328;-61
2022/09/16 02:35:41;;;;;;;5.73;4.60;;;15.20;99.90;;;;;;5052413;28;20292;-61
2022/09/16 02:38:13;;;;;;;7.43;4.70;;;15.20;99.90;;;;;;5052411;28;20235;-61
2022/09/16 02:40:46;;;;;;;11.83;6.13;;;15.20;99.90;;;;;;5052333;28;20555;-61
2022/09/16 02:43:13;;;;;;;6.90;5.57;;;15.10;99.90;;;;;;5051629;28;20230;-61
2022/09/16 02:45:46;;;;;;;5.90;5.30;;;15.10;99.90;;;;;;5052516;28;20672;-61
2022/09/16 02:48:23;;;;;;;6.53;5.33;;;15.10;99.90;;;;;;5052464;28;20206;-61
2022/09/16 02:50:58;;;;;;;7.10;6.40;;;15.10;99.90;;;;;;5052707;28;20209;-61
2022/09/16 02:53:34;;;;;;;6.40;5.70;;;15.00;99.90;;;;;;5051700;28;20312;-62
2022/09/16 02:56:07;;;;;;;6.50;5.67;;;15.00;99.90;;;;;;5052001;28;20311;-61
2022/09/16 02:58:33;;;;;;;6.03;5.33;;;15.00;99.90;;;;;;5052810;28;20263;-61
2022/09/16 03:01:01;;;;;;;21.23;14.80;;;15.00;99.90;;;;;;5053918;28;20631;-61
2022/09/16 03:03:29;;;;;;;11.97;9.03;;;15.00;99.90;;;;;;5052755;28;20221;-61
2022/09/16 03:06:14;;;;;;;33.13;23.23;;;15.00;99.90;;;;;;5053373;28;20201;-61
2022/09/16 03:08:42;;;;;;;19.53;11.50;;;14.90;99.90;;;;;;5052569;28;20216;-61
2022/09/16 03:11:18;;;;;;;10.23;7.17;;;14.90;99.90;;;;;;5052390;28;20205;-61
2022/09/16 03:13:54;;;;;;;8.17;5.50;;;14.90;99.90;;;;;;5051388;28;20240;-61
2022/09/16 03:16:29;;;;;;;7.30;5.67;;;14.90;99.90;;;;;;5052085;28;20257;-61
2022/09/16 03:19:05;;;;;;;11.60;6.57;;;14.90;99.90;;;;;;5051728;28;20240;-61
2022/09/16 03:21:40;;;;;;;7.07;5.33;;;14.90;99.90;;;;;;5051562;28;20212;-61
2022/09/16 03:24:13;;;;;;;6.43;5.10;;;14.90;99.90;;;;;;5051290;28;20650;-61
2022/09/16 03:26:46;;;;;;;10.60;6.50;;;14.90;99.90;;;;;;5051839;28;20208;-61
2022/09/16 03:29:19;;;;;;;7.63;5.67;;;15.00;99.90;;;;;;5051894;28;20741;-61
2022/09/16 03:31:54;;;;;;;7.13;5.27;;;15.00;99.90;;;;;;5051922;28;20301;-61
2022/09/16 03:34:26;;;;;;;7.50;4.67;;;15.00;99.90;;;;;;5051134;28;20255;-61
2022/09/16 03:36:59;;;;;;;7.93;4.87;;;15.10;99.90;;;;;;5051613;28;20225;-61
2022/09/16 03:39:25;;;;;;;7.43;4.60;;;15.10;99.90;;;;;;5051781;28;20216;-61
2022/09/16 03:41:54;;;;;;;6.60;4.43;;;15.20;99.90;;;;;;5051553;28;20209;-61
2022/09/16 03:44:20;;;;;;;5.80;4.30;;;15.30;99.90;;;;;;5051029;28;20255;-61
2022/09/16 03:46:47;;;;;;;13.60;7.77;;;15.30;99.90;;;;;;5051383;28;20252;-61
2022/09/16 03:49:14;;;;;;;6.83;4.50;;;15.30;99.90;;;;;;5051506;28;20607;-61
2022/09/16 03:51:42;;;;;;;5.77;5.07;;;15.40;99.90;;;;;;5051528;28;20617;-61
2022/09/16 03:54:09;;;;;;;7.57;5.17;;;15.40;99.90;;;;;;5050782;28;20575;-61
2022/09/16 03:56:35;;;;;;;14.00;8.10;;;15.40;99.90;;;;;;5051533;28;20308;-61
2022/09/16 03:59:02;;;;;;;9.20;4.50;;;15.40;99.90;;;;;;5051502;28;20252;-61
2022/09/16 04:01:29;;;;;;;5.47;4.50;;;15.50;99.90;;;;;;5051538;28;20217;-61
2022/09/16 04:03:56;;;;;;;6.67;3.90;;;15.50;99.90;;;;;;5050831;28;20283;-61
2022/09/16 04:06:23;;;;;;;9.50;5.70;;;15.60;99.90;;;;;;5051333;28;20662;-61
2022/09/16 04:08:52;;;;;;;6.37;4.90;;;15.60;99.90;;;;;;5051043;28;20674;-61
2022/09/16 04:11:19;;;;;;;5.23;3.70;;;15.60;99.90;;;;;;5051501;28;20205;-61
2022/09/16 04:13:46;;;;;;;6.03;4.00;;;15.60;99.90;;;;;;5050276;28;20725;-61
2022/09/16 04:16:19;;;;;;;6.40;3.53;;;15.60;99.90;;;;;;5051282;28;20240;-61
2022/09/16 04:18:45;;;;;;;7.30;3.70;;;15.60;99.90;;;;;;5051353;28;20350;-61
2022/09/16 04:21:12;;;;;;;4.20;3.80;;;15.60;99.90;;;;;;5051234;28;20619;-61
2022/09/16 04:23:39;;;;;;;6.47;4.20;;;15.60;99.90;;;;;;5050372;28;20265;-61
2022/09/16 04:26:07;;;;;;;5.30;4.00;;;15.60;99.90;;;;;;5051362;28;20206;-61
2022/09/16 04:28:34;;;;;;;8.30;4.00;;;15.60;99.90;;;;;;5051252;28;20210;-61
2022/09/16 04:31:01;;;;;;;6.13;3.60;;;15.60;99.90;;;;;;5051536;28;20221;-61
2022/09/16 04:33:28;;;;;;;7.80;3.70;;;15.60;99.90;;;;;;5051217;28;20607;-62
2022/09/16 04:36:02;;;;;;;6.07;3.87;;;15.60;99.90;;;;;;5055022;28;20244;-59
2022/09/16 04:38:28;;;;;;;6.50;3.97;;;15.60;99.90;;;;;;5054805;28;20232;-60
2022/09/16 04:40:59;;;;;;;6.47;3.87;;;15.70;99.90;;;;;;5054921;28;20700;-60
2022/09/16 04:43:27;;;;;;;8.37;3.57;;;15.70;99.90;;;;;;5054094;28;20283;-62
2022/09/16 04:45:54;;;;;;;4.20;3.70;;;15.70;99.90;;;;;;5054388;28;20210;-62
2022/09/16 04:48:21;;;;;;;5.93;4.23;;;15.70;99.90;;;;;;5054458;28;20205;-62
2022/09/16 04:50:48;;;;;;;6.27;3.93;;;15.70;99.90;;;;;;5054403;28;20287;-62
2022/09/16 04:53:14;;;;;;;7.53;3.67;;;15.70;99.90;;;;;;5053998;28;20229;-61
2022/09/16 04:55:41;;;;;;;6.50;4.00;;;15.70;99.90;;;;;;5054479;28;20209;-62
2022/09/16 04:58:08;;;;;;;7.30;5.47;;;15.80;99.90;;;;;;5054119;28;20669;-62
2022/09/16 05:00:36;;;;;;;6.03;4.60;;;15.80;99.90;;;;;;5054352;28;20206;-62
2022/09/16 05:03:03;;;;;;;5.90;3.70;;;15.70;99.90;;;;;;5053596;28;20256;-62
2022/09/16 05:05:30;;;;;;;7.87;4.60;;;15.70;99.90;;;;;;5054145;28;20202;-60
2022/09/16 05:07:56;;;;;;;6.10;3.97;;;15.70;99.90;;;;;;5054134;28;20232;-60
2022/09/16 05:10:23;;;;;;;6.13;4.03;;;15.70;99.90;;;;;;5054083;28;20205;-61
2022/09/16 05:12:51;;;;;;;8.90;3.80;;;15.70;99.90;;;;;;5068635;22;20240;-61
2022/09/16 05:15:17;;;;;;;6.53;3.77;;;15.70;99.90;;;;;;5065405;28;20197;-54
2022/09/16 05:17:46;;;;;;;7.77;4.20;;;15.70;99.90;;;;;;5056377;28;20252;-55
2022/09/16 05:20:13;;;;;;;7.50;3.83;;;15.80;99.90;;;;;;5053698;28;20743;-54
2022/09/16 05:22:40;;;;;;;6.53;3.83;;;15.80;99.90;;;;;;5053632;28;20292;-55
2022/09/16 05:25:07;;;;;;;8.27;3.70;;;15.70;99.90;;;;;;5053144;28;20695;-55
2022/09/16 05:27:34;;;;;;;7.23;4.17;;;15.90;99.90;;;;;;5053898;28;20271;-56
2022/09/16 05:30:01;;;;;;;10.40;3.87;;;15.90;99.90;;;;;;5053559;28;20241;-54
2022/09/16 05:32:28;;;;;;;5.10;3.60;;;15.90;99.90;;;;;;5053679;28;20260;-55
2022/09/16 05:34:55;;;;;;;6.83;3.93;;;15.90;99.90;;;;;;5053106;28;20264;-55
2022/09/16 05:37:22;;;;;;;7.80;3.60;;;15.90;99.90;;;;;;5053720;28;20295;-55
2022/09/16 05:39:49;;;;;;;6.80;3.20;;;15.90;99.90;;;;;;5053415;28;20259;-55
2022/09/16 05:42:15;;;;;;;7.30;3.30;;;15.90;99.90;;;;;;5053260;28;20240;-57
2022/09/16 05:44:42;;;;;;;5.97;3.50;;;16.00;99.90;;;;;;5052238;28;20252;-54
2022/09/16 05:47:09;;;;;;;6.40;3.83;;;15.90;99.90;;;;;;5053287;28;20281;-54
2022/09/16 05:49:36;;;;;;;9.50;5.17;;;16.00;99.90;;;;;;5053690;28;20205;-54
2022/09/16 05:52:04;;;;;;;11.33;4.60;;;16.00;99.90;;;;;;5053191;28;20221;-55
2022/09/16 05:54:31;;;;;;;5.63;4.47;;;16.00;99.90;;;;;;5052461;28;20233;-55
2022/09/16 05:56:58;;;;;;;5.38;4.28;;;16.00;99.90;;;;;;5052850;28;20316;-55
2022/09/16 05:59:24;;;;;;;8.90;4.13;;;16.00;99.90;;;;;;5052999;28;20202;-55
2022/09/16 06:01:51;;;;;;;5.43;4.47;;;16.00;99.90;;;;;;5053251;28;20210;-55
2022/09/16 06:04:18;;;;;;;9.40;4.47;;;15.90;99.90;;;;;;5052437;28;20640;-55
2022/09/16 06:06:46;;;;;;;5.13;4.57;;;15.90;99.90;;;;;;5052906;28;20201;-56
2022/09/16 06:09:16;;;;;;;6.80;4.50;;;15.80;99.90;;;;;;5052907;28;20608;-55
2022/09/16 06:11:44;;;;;;;5.87;4.03;;;15.90;99.90;;;;;;5052764;28;20282;-56
2022/09/16 06:14:11;;;;;;;4.80;3.73;;;15.90;99.90;;;;;;5052030;28;20237;-56
2022/09/16 06:16:39;;;;;;;6.77;3.70;;;15.90;99.90;;;;;;5052849;28;20711;-55
2022/09/16 06:19:09;;;;;;;5.83;3.60;;;16.00;99.90;;;;;;5052843;28;20217;-55
2022/09/16 06:21:36;;;;;;;6.77;4.33;;;16.00;99.90;;;;;;5052698;28;20209;-54
2022/09/16 06:24:07;;;;;;;9.27;4.20;;;16.00;99.90;;;;;;5051866;28;20312;-55
2022/09/16 06:26:36;;;;;;;5.70;3.80;;;16.10;99.90;;;;;;5052718;28;20196;-55
2022/09/16 06:29:04;;;;;;;5.60;3.60;;;16.10;99.90;;;;;;5052716;28;20263;-57
2022/09/16 06:31:31;;;;;;;4.67;3.73;;;16.10;99.90;;;;;;5052533;28;20735;-56
2022/09/16 06:33:58;;;;;;;6.00;4.10;;;16.10;99.90;;;;;;5051813;28;20236;-55
2022/09/16 06:36:27;;;;;;;6.47;3.77;;;16.10;99.90;;;;;;5052288;28;20669;-54
2022/09/16 06:38:54;;;;;;;6.33;4.20;;;16.00;99.90;;;;;;5052228;28;20229;-55
2022/09/16 06:41:21;;;;;;;6.60;3.95;;;16.00;99.90;;;;;;5052462;28;20206;-55
2022/09/16 06:43:50;;;;;;;6.87;3.93;;;15.90;99.90;;;;;;5051663;28;20230;-55
2022/09/16 06:46:19;;;;;;;6.57;4.07;;;15.90;99.90;;;;;;5052400;28;20216;-56
2022/09/16 06:48:49;;;;;;;9.10;3.73;;;15.90;99.90;;;;;;5052111;28;20256;-55
2022/09/16 06:51:17;;;;;;;15.57;11.73;;;15.90;99.90;;;;;;5052508;28;20300;-57
2022/09/16 06:53:44;;;;;;;5.43;3.50;;;15.90;99.90;;;;;;5051268;28;20221;-55
2022/09/16 06:56:14;;;;;;;6.43;3.70;;;16.00;99.90;;;;;;5051597;28;20559;-55
2022/09/16 06:58:42;;;;;;;9.40;3.60;;;16.10;99.90;;;;;;5051993;28;20283;-55
2022/09/16 07:01:12;;;;;;;8.13;3.70;;;16.10;99.90;;;;;;5052090;28;20206;-55
2022/09/16 07:03:40;;;;;;;10.60;4.70;;;15.90;99.90;;;;;;5051206;28;20288;-58
2022/09/16 07:06:07;;;;;;;17.70;4.20;;;15.70;99.90;;;;;;5051746;28;20582;-55
2022/09/16 07:08:36;;;;;;;18.30;4.80;;;15.60;99.90;;;;;;5052083;28;20205;-55
2022/09/16 07:11:05;;;;;;;5.90;2.63;;;15.50;99.90;;;;;;5052170;28;20213;-54
2022/09/16 07:13:32;;;;;;;6.00;2.40;;;15.20;99.90;;;;;;5051172;28;20229;-58
2022/09/16 07:16:00;;;;;;;5.73;2.40;;;15.20;99.90;;;;;;5052050;28;20212;-60
2022/09/16 07:18:29;;;;;;;3.97;1.93;;;15.10;99.90;;;;;;5051640;28;20320;-54
2022/09/16 07:21:02;;;;;;;4.33;1.80;;;15.10;99.90;;;;;;5051806;28;20811;-54
2022/09/16 07:23:30;;;;;;;5.80;2.13;;;15.20;99.90;;;;;;5050694;28;20276;-54
2022/09/16 07:26:01;;;;;;;5.80;2.30;;;15.20;99.90;;;;;;5052151;28;20292;-55
2022/09/16 07:28:28;;;;;;;4.30;2.20;;;15.30;99.90;;;;;;5051799;28;20284;-54
2022/09/16 07:30:54;;;;;;;4.47;2.10;;;15.40;99.90;;;;;;5051626;28;20262;-55
2022/09/16 07:33:21;;;;;;;6.60;2.00;;;15.40;99.90;;;;;;5050884;28;20291;-54
2022/09/16 07:35:49;;;;;;;3.87;1.70;;;15.50;99.90;;;;;;5051735;28;20258;-54
2022/09/16 07:38:16;;;;;;;4.70;1.83;;;15.50;99.90;;;;;;5051583;28;20229;-54
2022/09/16 07:40:42;;;;;;;5.93;2.40;;;15.40;99.90;;;;;;5051715;28;20259;-55
2022/09/16 07:43:09;;;;;;;5.97;2.17;;;15.40;99.90;;;;;;5050712;28;20229;-55
2022/09/16 07:45:36;;;;;;;5.47;2.20;;;15.40;99.90;;;;;;5051243;28;20205;-54
2022/09/16 07:48:02;;;;;;;4.50;2.40;;;15.50;99.90;;;;;;5051156;28;20619;-55
2022/09/16 07:50:29;;;;;;;4.87;2.10;;;15.60;99.90;;;;;;5051502;28;20210;-54
2022/09/16 07:52:57;;;;;;;5.47;2.10;;;15.50;99.90;;;;;;5051303;28;20328;-55
2022/09/16 07:55:24;;;;;;;3.37;2.10;;;15.50;99.90;;;;;;5050740;28;20270;-55
2022/09/16 07:57:50;;;;;;;4.80;2.20;;;15.60;99.90;;;;;;5051073;28;20291;-55
2022/09/16 08:00:17;;;;;;;4.13;2.47;;;15.80;99.90;;;;;;5051296;28;20210;-56
2022/09/16 08:02:44;;;;;;;3.73;2.60;;;16.00;99.90;;;;;;5051347;28;20209;-55
2022/09/16 08:05:12;;;;;;;4.63;2.40;;;16.10;99.90;;;;;;5050722;28;20213;-55
2022/09/16 08:07:38;;;;;;;3.50;2.23;;;16.40;99.90;;;;;;5051721;28;20550;-55
2022/09/16 08:10:07;;;;;;;3.37;2.47;;;16.60;99.90;;;;;;5055355;28;20260;-55
2022/09/16 08:12:34;;;;;;;3.23;2.50;;;16.80;99.90;;;;;;5054980;28;20210;-55
2022/09/16 08:15:01;;;;;;;5.90;2.37;;;17.20;99.90;;;;;;5054589;28;20209;-55
2022/09/16 08:17:27;;;;;;;7.10;2.17;;;17.50;99.90;;;;;;5055151;28;20213;-55
2022/09/16 08:19:54;;;;;;;5.45;2.60;;;17.70;99.90;;;;;;5055165;28;20205;-55
2022/09/16 08:22:22;;;;;;;6.55;2.50;;;17.90;99.90;;;;;;5055071;28;20292;-55
2022/09/16 08:24:49;;;;;;;6.13;2.50;;;18.10;99.90;;;;;;5054313;28;20279;-55
2022/09/16 08:27:16;;;;;;;4.70;2.58;;;18.20;99.90;;;;;;5054899;28;20206;-55
2022/09/16 08:29:43;;;;;;;3.72;2.33;;;18.20;99.90;;;;;;5055059;28;20210;-55
2022/09/16 08:32:10;;;;;;;4.93;2.47;;;18.30;99.90;;;;;;5055062;28;20201;-55
2022/09/16 08:34:38;;;;;;;7.45;2.72;;;18.30;99.90;;;;;;5054155;28;20721;-55
2022/09/16 08:37:05;;;;;;;5.80;2.45;;;18.20;99.90;;;;;;5054855;28;20209;-55
2022/09/16 08:39:32;;;;;;;6.68;2.75;;;18.30;99.90;;;;;;5054593;28;20724;-55
2022/09/16 08:42:31;;;;;;;5.97;2.38;;;18.30;99.90;;;;;;5054695;28;20236;-55
2022/09/16 08:45:08;;;;;;;4.55;2.30;;;18.50;99.90;;;;;;5053984;28;20630;-56
2022/09/16 08:47:49;;;;;;;4.22;2.70;;;18.60;99.90;;;;;;5054642;28;20201;-55
2022/09/16 08:50:19;;;;;;;3.38;2.50;;;18.70;99.90;;;;;;5054261;28;20217;-55
2022/09/16 08:52:47;;;;;;;5.15;2.30;;;18.70;99.90;;;;;;5054378;28;20747;-55
2022/09/16 08:55:18;;;;;;;6.38;2.30;;;18.60;99.90;;;;;;5053791;28;20587;-55
2022/09/16 08:58:01;;;;;;;3.97;2.42;;;18.70;99.90;;;;;;5054258;28;20303;-55
2022/09/16 09:00:28;;;;;;;5.78;2.28;;;18.70;99.90;;;;;;5054235;28;20205;-55
2022/09/16 09:02:58;;;;;;;6.40;2.55;;;18.80;99.90;;;;;;5054478;28;20283;-55
2022/09/16 09:05:33;;;;;;;3.83;2.13;;;18.90;99.90;;;;;;5053563;28;20627;-56
2022/09/16 09:08:32;;;;;;;3.53;2.00;;;19.00;99.90;;;;;;5053727;28;20676;-55
2022/09/16 09:11:03;;;;;;;4.40;2.03;;;19.10;99.90;;;;;;5054001;28;20252;-56
2022/09/16 09:14:02;;;;;;;4.47;2.53;;;19.20;99.90;;;;;;5053175;28;20237;-56
2022/09/16 09:16:37;;;;;;;4.70;2.50;;;19.20;99.90;;;;;;5046221;28;20684;-55
2022/09/16 09:19:23;;;;;;;6.20;2.53;;;19.20;99.90;;;;;;5053302;28;20700;-57
2022/09/16 09:21:59;;;;;;;4.68;2.30;;;19.30;99.90;;;;;;5054413;28;20209;-55
2022/09/16 09:24:39;;;;;;;4.43;2.80;;;19.30;99.90;;;;;;5052997;28;20229;-56
2022/09/16 09:27:14;;;;;;;3.40;2.53;;;19.20;99.90;;;;;;5053914;28;20565;-57
2022/09/16 09:30:02;;;;;;;4.22;2.42;;;19.20;99.90;;;;;;5053851;28;20201;-58
2022/09/16 09:32:44;;;;;;;6.25;2.72;;;19.30;99.90;;;;;;5053869;28;20221;-55
2022/09/16 09:35:23;;;;;;;5.80;2.78;;;19.40;99.90;;;;;;5052890;28;20205;-56
2022/09/16 09:38:07;;;;;;;7.03;2.90;;;19.50;99.90;;;;;;5053381;28;20259;-56
2022/09/16 09:40:40;;;;;;;6.53;2.85;;;19.60;99.90;;;;;;5053700;28;20212;-56
2022/09/16 09:43:12;;;;;;;3.85;2.45;;;19.70;99.90;;;;;;5053426;28;20240;-56
2022/09/16 09:45:44;;;;;;;5.90;3.72;;;19.80;99.90;;;;;;5052524;28;20300;-58
2022/09/16 09:48:18;;;;;;;8.35;3.25;;;19.80;99.90;;;;;;5053126;28;20692;-56
2022/09/16 09:50:47;;;;;;;8.20;3.00;;;19.70;99.90;;;;;;5053150;28;20247;-56
2022/09/16 09:53:20;;;;;;;12.60;7.95;;;19.60;99.90;;;;;;5053200;28;20228;-56
2022/09/16 09:55:49;;;;;;;7.93;4.03;;;19.60;99.90;;;;;;5053192;28;20277;-56
2022/09/16 09:58:24;;;;;;;4.47;2.60;;;19.60;99.90;;;;;;5053013;28;20221;-55
2022/09/16 10:00:54;;;;;;;6.70;3.08;;;19.70;99.90;;;;;;5053098;28;20307;-61
2022/09/16 10:03:22;;;;;;;5.70;3.10;;;19.80;99.90;;;;;;5052140;28;20316;-58
2022/09/16 10:05:49;;;;;;;5.72;3.05;;;19.80;99.90;;;;;;5052978;28;20216;-56
2022/09/16 10:08:22;;;;;;;3.70;2.50;;;19.80;99.90;;;;;;5053042;28;20197;-56
2022/09/16 10:10:52;;;;;;;5.50;3.20;;;19.80;99.90;;;;;;5052748;28;20255;-56
2022/09/16 10:13:20;;;;;;;5.70;3.00;;;19.90;99.90;;;;;;5052050;28;20233;-56
2022/09/16 10:15:47;;;;;;;5.60;3.15;;;19.90;99.90;;;;;;5052615;28;20236;-57
2022/09/16 10:18:24;;;;;;;7.00;3.60;;;20.00;99.90;;;;;;5052681;28;20221;-56
2022/09/16 10:20:59;;;;;;;6.50;3.55;;;19.90;99.90;;;;;;5052727;28;20236;-57
2022/09/16 10:23:26;;;;;;;6.95;2.92;;;19.80;99.90;;;;;;5051797;28;20259;-56
2022/09/16 10:26:14;;;;;;;4.72;3.28;;;19.80;99.90;;;;;;5052374;28;20209;-60
2022/09/16 10:28:41;;;;;;;6.38;2.85;;;19.80;99.90;;;;;;5052553;28;20208;-58
2022/09/16 10:31:08;;;;;;;7.18;3.10;;;19.80;99.90;;;;;;5052450;28;20311;-56
2022/09/16 10:33:42;;;;;;;7.57;2.95;;;19.80;99.90;;;;;;5051614;28;20279;-56
2022/09/16 10:36:17;;;;;;;4.78;2.80;;;19.70;99.90;;;;;;5052119;28;20266;-58
2022/09/16 10:38:52;;;;;;;6.85;3.33;;;19.60;99.90;;;;;;5050879;28;20998;-63
2022/09/16 10:41:23;;;;;;;4.38;2.60;;;19.60;99.90;;;;;;5048213;28;20299;-62
2022/09/16 10:43:52;;;;;;;7.32;3.75;;;19.40;99.90;;;;;;5064691;28;20299;-60
2022/09/16 10:46:19;;;;;;;8.88;4.30;;;19.20;99.90;;;;;;5070811;28;20201;-61
2022/09/16 10:48:50;;;;;;;9.93;3.80;;;18.90;99.90;;;;;;5070581;28;20262;-58
2022/09/16 10:51:23;;;;;;;8.07;4.65;;;18.70;99.90;;;;;;5070430;28;20231;-60
2022/09/16 10:53:54;;;;;;;6.60;3.60;;;18.40;99.90;;;;;;5069824;28;20229;-57
2022/09/16 10:56:23;;;;;;;5.53;3.35;;;18.30;99.90;;;;;;5071325;28;20295;-58
2022/09/16 10:59:00;;;;;;;9.63;4.80;;;18.30;99.90;;;;;;5070834;28;20271;-57
2022/09/16 11:01:37;;;;;;;4.90;2.92;;;18.30;99.90;;;;;;5070352;28;20215;-59
2022/09/16 11:04:36;;;;;;;4.05;3.25;;;18.30;99.90;;;;;;5069611;28;20228;-58
2022/09/16 11:07:16;;;;;;;7.68;3.85;;;18.40;99.90;;;;;;5070692;28;20217;-57
2022/09/16 11:09:52;;;;;;;6.50;3.00;;;18.50;99.90;;;;;;5071083;28;20254;-56
2022/09/16 11:12:50;;;;;;;5.93;2.63;;;18.60;99.90;;;;;;5070837;28;20658;-59
2022/09/16 11:15:28;;;;;;;5.47;3.35;;;18.60;99.90;;;;;;5070547;28;20255;-58
2022/09/16 11:18:16;;;;;;;7.88;3.58;;;18.60;99.90;;;;;;5070267;28;20204;-57
2022/09/16 11:20:55;;;;;;;7.38;4.50;;;18.50;99.90;;;;;;5070840;28;20209;-58
2022/09/16 11:23:40;;;;;;;8.63;4.53;;;18.40;99.90;;;;;;5070068;28;20225;-58
2022/09/16 11:26:15;;;;;;;5.15;3.42;;;18.40;99.90;;;;;;5070695;28;20204;-59
2022/09/16 11:29:13;;;;;;;5.22;2.92;;;18.40;99.90;;;;;;5070404;28;20295;-59
2022/09/16 11:31:50;;;;;;;6.00;3.00;;;18.30;99.90;;;;;;5070460;28;20216;-59
2022/09/16 11:34:30;;;;;;;6.07;2.58;;;18.20;99.90;;;;;;5069876;28;20236;-59
2022/09/16 11:37:08;;;;;;;4.93;2.65;;;18.20;99.90;;;;;;5070608;28;20208;-59
2022/09/16 11:39:54;;;;;;;3.97;2.25;;;18.20;99.90;;;;;;5070553;28;20270;-59
2022/09/16 11:42:28;;;;;;;5.25;2.60;;;18.30;99.90;;;;;;5070036;28;20201;-60
2022/09/16 11:45:00;;;;;;;3.55;1.98;;;18.40;99.90;;;;;;5073706;28;20809;-59
2022/09/16 11:47:53;;;;;;;8.57;2.80;;;18.30;99.90;;;;;;5074243;28;20208;-59
2022/09/16 11:50:33;;;;;;;7.53;2.75;;;18.30;99.90;;;;;;5069968;28;20197;-59
2022/09/16 11:53:18;;;;;;;8.85;2.72;;;18.20;99.90;;;;;;5073284;28;20357;-63
2022/09/16 11:55:51;;;;;;;3.78;2.28;;;18.40;99.90;;;;;;5073541;28;20295;-59
2022/09/16 11:58:27;;;;;;;4.80;2.70;;;18.50;99.90;;;;;;5074588;28;20712;-58
2022/09/16 12:00:58;;;;;;;4.70;2.42;;;18.70;99.90;;;;;;5074209;28;20258;-58
2022/09/16 12:03:31;;;;;;;5.57;2.10;;;18.90;99.90;;;;;;5073811;28;20271;-61
2022/09/16 12:06:04;;;;;;;4.82;2.00;;;19.00;99.90;;;;;;5073616;28;20280;-59
2022/09/16 12:08:39;;;;;;;4.05;2.00;;;19.20;99.90;;;;;;5074232;28;20232;-59
2022/09/16 12:11:17;;;;;;;3.72;1.75;;;19.40;99.90;;;;;;5074235;28;20204;-59
2022/09/16 12:13:49;;;;;;;5.25;2.15;;;19.60;99.90;;;;;;5073006;28;20285;-59
2022/09/16 12:16:19;;;;;;;4.13;1.90;;;19.90;99.90;;;;;;5057275;28;20237;-59
2022/09/16 12:18:49;;;;;;;5.10;2.28;;;20.20;99.90;;;;;;5053530;28;20233;-58
2022/09/16 12:21:22;;;;;;;7.53;1.98;;;20.50;99.90;;;;;;5053626;28;20206;-57
2022/09/16 12:23:53;;;;;;;4.43;1.65;;;20.60;99.90;;;;;;5051079;28;20229;-58
2022/09/16 12:26:24;;;;;;;2.58;1.73;;;20.80;99.90;;;;;;5045379;28;20201;-60
2022/09/16 12:28:56;;;;;;;5.65;1.60;;;20.80;99.90;;;;;;5035284;28;20636;-60
2022/09/16 12:31:26;;;;;;;4.10;1.55;;;21.10;99.90;;;;;;5033599;28;20336;-60
2022/09/16 12:33:58;;;;;;;4.30;1.88;;;21.30;99.90;;;;;;5032607;28;20226;-59
2022/09/16 12:36:30;;;;;;;3.92;1.40;;;21.40;99.90;;;;;;5033574;28;20264;-60
2022/09/16 12:38:59;;;;;;;2.60;1.35;;;21.50;99.90;;;;;;5033355;28;20375;-58
2022/09/16 12:41:42;;;;;;;5.70;1.60;;;21.50;99.90;;;;;;5032602;28;20631;-58
2022/09/16 12:44:48;;;;;;;3.25;1.50;;;21.50;99.90;;;;;;5031201;28;20325;-62
2022/09/16 12:47:34;;;;;;;4.32;1.20;;;21.60;99.90;;;;;;5033237;28;20202;-58
2022/09/16 12:50:39;;;;;;;5.65;1.85;;;21.60;99.90;;;;;;5033183;28;20503;-58
2022/09/16 12:53:27;;;;;;;4.97;1.38;;;21.80;99.90;;;;;;5031647;28;20233;-59
2022/09/16 12:56:06;;;;;;;2.80;1.60;;;21.80;99.90;;;;;;5031065;28;20662;-59
2022/09/16 12:59:03;;;;;;;3.85;1.13;;;21.90;99.90;;;;;;5033233;28;20217;-60
2022/09/16 13:01:35;;;;;;;4.93;1.38;;;21.70;99.90;;;;;;5031294;28;20447;-59
2022/09/16 13:04:09;;;;;;;2.53;1.40;;;21.40;99.90;;;;;;5031868;28;20274;-59
2022/09/16 13:06:40;;;;;;;5.07;1.60;;;21.20;99.90;;;;;;5032659;28;20213;-61
2022/09/16 13:09:21;;;;;;;3.95;1.90;;;20.90;99.90;;;;;;5033104;28;20202;-57